sensor_id;sensor_type;location;lat;lon;timestamp;P1;durP1;ratioP1;P2;durP2;ratioP2
49582;SDS011;36329;48.816;44.624;2024-01-27T00:00:23;10.8;;;5.1;;
49582;SDS011;36329;48.816;44.624;2024-01-27T00:03:26;10.8;;;5;;
49582;SDS011;36329;48.816;44.624;2024-01-27T00:06:28;10;;;5.2;;
49582;SDS011;36329;48.816;44.624;2024-01-27T00:09:30;9.8;;;4.8;;
49582;SDS011;36329;48.816;44.624;2024-01-27T00:12:32;8.8;;;4.6;;
49582;SDS011;36329;48.816;44.624;2024-01-27T00:15:34;9;;;5;;
49582;SDS011;36329;48.816;44.624;2024-01-27T00:18:37;8.8;;;4.9;;
49582;SDS011;36329;48.816;44.624;2024-01-27T00:21:40;6.5;;;4.3;;
49582;SDS011;36329;48.816;44.624;2024-01-27T00:24:42;10.3;;;5.1;;
49582;SDS011;36329;48.816;44.624;2024-01-27T00:27:44;8.2;;;4.5;;
49582;SDS011;36329;48.816;44.624;2024-01-27T00:30:46;9.4;;;5;;
49582;SDS011;36329;48.816;44.624;2024-01-27T00:33:48;9.6;;;4.9;;
49582;SDS011;36329;48.816;44.624;2024-01-27T00:36:51;7.8;;;4.8;;
49582;SDS011;36329;48.816;44.624;2024-01-27T00:39:53;8.8;;;4.6;;
49582;SDS011;36329;48.816;44.624;2024-01-27T00:42:56;7.9;;;4.4;;
49582;SDS011;36329;48.816;44.624;2024-01-27T00:45:58;7.4;;;4.6;;
49582;SDS011;36329;48.816;44.624;2024-01-27T00:49:00;11.1;;;5;;
49582;SDS011;36329;48.816;44.624;2024-01-27T00:52:03;8.7;;;5.1;;
49582;SDS011;36329;48.816;44.624;2024-01-27T00:55:05;7.7;;;4.3;;
49582;SDS011;36329;48.816;44.624;2024-01-27T00:58:08;10.3;;;4.9;;
49582;SDS011;36329;48.816;44.624;2024-01-27T01:01:10;8.1;;;4.3;;
49582;SDS011;36329;48.816;44.624;2024-01-27T01:04:12;7.9;;;4.4;;
49582;SDS011;36329;48.816;44.624;2024-01-27T01:07:15;9;;;4.2;;
49582;SDS011;36329;48.816;44.624;2024-01-27T01:10:18;6.6;;;3.7;;
49582;SDS011;36329;48.816;44.624;2024-01-27T01:13:20;7.6;;;4.2;;
49582;SDS011;36329;48.816;44.624;2024-01-27T01:16:22;7.6;;;4.4;;
49582;SDS011;36329;48.816;44.624;2024-01-27T01:19:25;7.9;;;3.8;;
49582;SDS011;36329;48.816;44.624;2024-01-27T01:22:27;6.4;;;3.9;;
49582;SDS011;36329;48.816;44.624;2024-01-27T01:25:29;6.8;;;4.2;;
49582;SDS011;36329;48.816;44.624;2024-01-27T01:28:32;9.2;;;4.1;;
49582;SDS011;36329;48.816;44.624;2024-01-27T01:31:34;6.8;;;3.7;;
49582;SDS011;36329;48.816;44.624;2024-01-27T01:34:37;6.3;;;4;;
49582;SDS011;36329;48.816;44.624;2024-01-27T01:37:39;7.2;;;4;;
49582;SDS011;36329;48.816;44.624;2024-01-27T01:40:41;7.3;;;4.4;;
49582;SDS011;36329;48.816;44.624;2024-01-27T01:43:43;8.4;;;4.7;;
49582;SDS011;36329;48.816;44.624;2024-01-27T01:46:45;8.2;;;3.8;;
49582;SDS011;36329;48.816;44.624;2024-01-27T01:49:47;6.9;;;3.7;;
49582;SDS011;36329;48.816;44.624;2024-01-27T01:52:50;8.4;;;4;;
49582;SDS011;36329;48.816;44.624;2024-01-27T01:55:55;7.9;;;4;;
49582;SDS011;36329;48.816;44.624;2024-01-27T01:58:57;7.1;;;4.1;;
49582;SDS011;36329;48.816;44.624;2024-01-27T02:01:59;6.4;;;3.5;;
49582;SDS011;36329;48.816;44.624;2024-01-27T02:05:01;6.6;;;3.5;;
49582;SDS011;36329;48.816;44.624;2024-01-27T02:08:04;7.1;;;3.6;;
49582;SDS011;36329;48.816;44.624;2024-01-27T02:11:07;6.2;;;3.4;;
49582;SDS011;36329;48.816;44.624;2024-01-27T02:14:09;5.3;;;3.3;;
49582;SDS011;36329;48.816;44.624;2024-01-27T02:17:12;6.9;;;3.2;;
49582;SDS011;36329;48.816;44.624;2024-01-27T02:20:14;6.2;;;3.5;;
49582;SDS011;36329;48.816;44.624;2024-01-27T02:23:16;6.4;;;3.4;;
49582;SDS011;36329;48.816;44.624;2024-01-27T02:26:19;6.1;;;3.3;;
49582;SDS011;36329;48.816;44.624;2024-01-27T02:29:21;6;;;3.4;;
49582;SDS011;36329;48.816;44.624;2024-01-27T02:32:23;5.7;;;3.5;;
49582;SDS011;36329;48.816;44.624;2024-01-27T02:35:25;7.5;;;4.1;;
49582;SDS011;36329;48.816;44.624;2024-01-27T02:38:28;6.7;;;3.7;;
49582;SDS011;36329;48.816;44.624;2024-01-27T02:41:30;6.7;;;4;;
49582;SDS011;36329;48.816;44.624;2024-01-27T02:44:32;8;;;4.4;;
49582;SDS011;36329;48.816;44.624;2024-01-27T02:47:34;7;;;4.3;;
49582;SDS011;36329;48.816;44.624;2024-01-27T02:50:37;7.2;;;4;;
49582;SDS011;36329;48.816;44.624;2024-01-27T02:53:39;6.8;;;4.1;;
49582;SDS011;36329;48.816;44.624;2024-01-27T02:56:41;8.1;;;4.2;;
49582;SDS011;36329;48.816;44.624;2024-01-27T02:59:45;7.5;;;4.2;;
49582;SDS011;36329;48.816;44.624;2024-01-27T03:02:47;7;;;3.8;;
49582;SDS011;36329;48.816;44.624;2024-01-27T03:05:49;7.4;;;3.8;;
49582;SDS011;36329;48.816;44.624;2024-01-27T03:08:52;5.6;;;3.3;;
49582;SDS011;36329;48.816;44.624;2024-01-27T03:11:54;6.7;;;3.4;;
49582;SDS011;36329;48.816;44.624;2024-01-27T03:14:57;5.3;;;3;;
49582;SDS011;36329;48.816;44.624;2024-01-27T03:17:59;5.8;;;3.4;;
49582;SDS011;36329;48.816;44.624;2024-01-27T03:21:01;6.3;;;3.3;;
49582;SDS011;36329;48.816;44.624;2024-01-27T03:24:04;5.8;;;3.3;;
49582;SDS011;36329;48.816;44.624;2024-01-27T03:27:06;7.6;;;3.3;;
49582;SDS011;36329;48.816;44.624;2024-01-27T03:30:09;5.4;;;2.9;;
49582;SDS011;36329;48.816;44.624;2024-01-27T03:33:11;6.1;;;3;;
49582;SDS011;36329;48.816;44.624;2024-01-27T03:36:13;5.4;;;3.3;;
49582;SDS011;36329;48.816;44.624;2024-01-27T03:39:15;4.7;;;3;;
49582;SDS011;36329;48.816;44.624;2024-01-27T03:42:18;4.6;;;2.7;;
49582;SDS011;36329;48.816;44.624;2024-01-27T03:45:20;5;;;3;;
49582;SDS011;36329;48.816;44.624;2024-01-27T03:48:22;5.7;;;3.2;;
49582;SDS011;36329;48.816;44.624;2024-01-27T03:51:25;5.6;;;3.2;;
49582;SDS011;36329;48.816;44.624;2024-01-27T03:54:28;5.4;;;2.9;;
49582;SDS011;36329;48.816;44.624;2024-01-27T03:57:30;7.6;;;3.2;;
49582;SDS011;36329;48.816;44.624;2024-01-27T04:00:33;5.7;;;3.3;;
49582;SDS011;36329;48.816;44.624;2024-01-27T04:03:35;6.1;;;3.2;;
49582;SDS011;36329;48.816;44.624;2024-01-27T04:06:38;5.9;;;3.2;;
49582;SDS011;36329;48.816;44.624;2024-01-27T04:09:41;5.8;;;3.3;;
49582;SDS011;36329;48.816;44.624;2024-01-27T04:12:44;6.7;;;3.6;;
49582;SDS011;36329;48.816;44.624;2024-01-27T04:15:46;6.1;;;3.1;;
49582;SDS011;36329;48.816;44.624;2024-01-27T04:18:48;5.8;;;3.3;;
49582;SDS011;36329;48.816;44.624;2024-01-27T04:21:51;8.4;;;4.1;;
49582;SDS011;36329;48.816;44.624;2024-01-27T04:24:53;5.6;;;3.3;;
49582;SDS011;36329;48.816;44.624;2024-01-27T04:27:56;4.8;;;3;;
49582;SDS011;36329;48.816;44.624;2024-01-27T04:30:58;5.9;;;3.1;;
49582;SDS011;36329;48.816;44.624;2024-01-27T04:34:00;6.5;;;2.9;;
49582;SDS011;36329;48.816;44.624;2024-01-27T04:37:03;4.6;;;2.8;;
49582;SDS011;36329;48.816;44.624;2024-01-27T04:40:06;5;;;2.7;;
49582;SDS011;36329;48.816;44.624;2024-01-27T04:43:09;5.1;;;2.6;;
49582;SDS011;36329;48.816;44.624;2024-01-27T04:46:11;3.9;;;2.5;;
49582;SDS011;36329;48.816;44.624;2024-01-27T04:49:13;4.8;;;2.9;;
49582;SDS011;36329;48.816;44.624;2024-01-27T04:52:16;6;;;2.8;;
49582;SDS011;36329;48.816;44.624;2024-01-27T04:55:18;4.2;;;2.4;;
49582;SDS011;36329;48.816;44.624;2024-01-27T04:58:21;4.4;;;2.5;;
49582;SDS011;36329;48.816;44.624;2024-01-27T05:01:23;3.7;;;2.1;;
49582;SDS011;36329;48.816;44.624;2024-01-27T05:04:25;4.3;;;2.6;;
49582;SDS011;36329;48.816;44.624;2024-01-27T05:07:27;4.5;;;2.5;;
49582;SDS011;36329;48.816;44.624;2024-01-27T05:10:30;4.8;;;2.6;;
49582;SDS011;36329;48.816;44.624;2024-01-27T05:13:33;4.9;;;2.9;;
49582;SDS011;36329;48.816;44.624;2024-01-27T05:16:35;5.6;;;3;;
49582;SDS011;36329;48.816;44.624;2024-01-27T05:19:37;5.3;;;3.1;;
49582;SDS011;36329;48.816;44.624;2024-01-27T05:22:39;5.1;;;2.8;;
49582;SDS011;36329;48.816;44.624;2024-01-27T05:25:41;4.4;;;2.5;;
49582;SDS011;36329;48.816;44.624;2024-01-27T05:28:44;5.2;;;2.5;;
49582;SDS011;36329;48.816;44.624;2024-01-27T05:31:46;5.2;;;2.7;;
49582;SDS011;36329;48.816;44.624;2024-01-27T05:34:48;4.8;;;2.5;;
49582;SDS011;36329;48.816;44.624;2024-01-27T05:37:50;5.6;;;2.7;;
49582;SDS011;36329;48.816;44.624;2024-01-27T05:40:52;6.9;;;2.7;;
49582;SDS011;36329;48.816;44.624;2024-01-27T05:43:55;4.7;;;2.7;;
49582;SDS011;36329;48.816;44.624;2024-01-27T05:46:57;6.3;;;2.8;;
49582;SDS011;36329;48.816;44.624;2024-01-27T05:50:00;6.6;;;2.8;;
49582;SDS011;36329;48.816;44.624;2024-01-27T05:53:02;5.5;;;2.9;;
49582;SDS011;36329;48.816;44.624;2024-01-27T05:56:04;4.7;;;2.6;;
49582;SDS011;36329;48.816;44.624;2024-01-27T05:59:07;5.2;;;2.8;;
49582;SDS011;36329;48.816;44.624;2024-01-27T06:02:09;5.4;;;3;;
49582;SDS011;36329;48.816;44.624;2024-01-27T06:05:11;5.2;;;3.1;;
49582;SDS011;36329;48.816;44.624;2024-01-27T06:08:13;5.2;;;3;;
49582;SDS011;36329;48.816;44.624;2024-01-27T06:11:23;4.8;;;2.8;;
49582;SDS011;36329;48.816;44.624;2024-01-27T06:14:25;5.4;;;2.9;;
49582;SDS011;36329;48.816;44.624;2024-01-27T06:17:28;5.5;;;2.8;;
49582;SDS011;36329;48.816;44.624;2024-01-27T06:20:30;5.6;;;2.8;;
49582;SDS011;36329;48.816;44.624;2024-01-27T06:23:32;4.2;;;2.5;;
49582;SDS011;36329;48.816;44.624;2024-01-27T06:26:34;3.9;;;2.4;;
49582;SDS011;36329;48.816;44.624;2024-01-27T06:29:36;3.5;;;2.1;;
49582;SDS011;36329;48.816;44.624;2024-01-27T06:32:39;3.2;;;2;;
49582;SDS011;36329;48.816;44.624;2024-01-27T06:35:41;4.5;;;2.3;;
49582;SDS011;36329;48.816;44.624;2024-01-27T06:38:43;3.9;;;2.4;;
49582;SDS011;36329;48.816;44.624;2024-01-27T06:41:45;5.2;;;2.3;;
49582;SDS011;36329;48.816;44.624;2024-01-27T06:44:47;4.9;;;2.4;;
49582;SDS011;36329;48.816;44.624;2024-01-27T06:47:50;5;;;2.5;;
49582;SDS011;36329;48.816;44.624;2024-01-27T06:50:52;4.1;;;2.4;;
49582;SDS011;36329;48.816;44.624;2024-01-27T06:53:54;4;;;2.6;;
49582;SDS011;36329;48.816;44.624;2024-01-27T06:56:56;4.1;;;2.2;;
49582;SDS011;36329;48.816;44.624;2024-01-27T07:00:01;4.5;;;2.3;;
49582;SDS011;36329;48.816;44.624;2024-01-27T07:03:07;3.8;;;2.5;;
49582;SDS011;36329;48.816;44.624;2024-01-27T07:06:09;4.2;;;2.5;;
49582;SDS011;36329;48.816;44.624;2024-01-27T07:09:11;4.2;;;2.4;;
49582;SDS011;36329;48.816;44.624;2024-01-27T07:12:14;3.7;;;2.2;;
49582;SDS011;36329;48.816;44.624;2024-01-27T07:15:16;4.5;;;2.5;;
49582;SDS011;36329;48.816;44.624;2024-01-27T07:18:18;5.3;;;2.5;;
49582;SDS011;36329;48.816;44.624;2024-01-27T07:21:20;4.8;;;3.2;;
49582;SDS011;36329;48.816;44.624;2024-01-27T07:24:22;4.7;;;2.9;;
49582;SDS011;36329;48.816;44.624;2024-01-27T07:27:26;4.5;;;3;;
49582;SDS011;36329;48.816;44.624;2024-01-27T07:30:28;5.4;;;3.2;;
49582;SDS011;36329;48.816;44.624;2024-01-27T07:33:30;4.8;;;2.5;;
49582;SDS011;36329;48.816;44.624;2024-01-27T07:36:32;4.9;;;2.4;;
49582;SDS011;36329;48.816;44.624;2024-01-27T07:39:34;4.8;;;2.5;;
49582;SDS011;36329;48.816;44.624;2024-01-27T07:42:36;4.1;;;2.5;;
49582;SDS011;36329;48.816;44.624;2024-01-27T07:45:39;4.2;;;2.8;;
49582;SDS011;36329;48.816;44.624;2024-01-27T07:48:41;4.7;;;2.4;;
49582;SDS011;36329;48.816;44.624;2024-01-27T07:51:43;5.6;;;3.4;;
49582;SDS011;36329;48.816;44.624;2024-01-27T07:54:46;5.3;;;3.1;;
49582;SDS011;36329;48.816;44.624;2024-01-27T07:57:48;4.4;;;2.7;;
49582;SDS011;36329;48.816;44.624;2024-01-27T08:00:50;10.8;;;4.3;;
49582;SDS011;36329;48.816;44.624;2024-01-27T08:03:53;6.1;;;3.3;;
49582;SDS011;36329;48.816;44.624;2024-01-27T08:06:55;5.6;;;2.9;;
49582;SDS011;36329;48.816;44.624;2024-01-27T08:09:58;4.6;;;2.8;;
49582;SDS011;36329;48.816;44.624;2024-01-27T08:13:00;4.4;;;2.6;;
49582;SDS011;36329;48.816;44.624;2024-01-27T08:16:02;6.2;;;3;;
49582;SDS011;36329;48.816;44.624;2024-01-27T08:19:05;5.4;;;2.6;;
49582;SDS011;36329;48.816;44.624;2024-01-27T08:22:07;4.1;;;2.4;;
49582;SDS011;36329;48.816;44.624;2024-01-27T08:25:09;5.5;;;2.8;;
49582;SDS011;36329;48.816;44.624;2024-01-27T08:28:12;4.8;;;3.3;;
49582;SDS011;36329;48.816;44.624;2024-01-27T08:31:14;4.9;;;2.9;;
49582;SDS011;36329;48.816;44.624;2024-01-27T08:34:17;5.4;;;2.8;;
49582;SDS011;36329;48.816;44.624;2024-01-27T08:37:19;4.7;;;2.8;;
49582;SDS011;36329;48.816;44.624;2024-01-27T08:40:21;5;;;3;;
49582;SDS011;36329;48.816;44.624;2024-01-27T08:43:24;4.8;;;2.9;;
49582;SDS011;36329;48.816;44.624;2024-01-27T08:46:26;5.1;;;2.6;;
49582;SDS011;36329;48.816;44.624;2024-01-27T08:49:28;5.5;;;2.8;;
49582;SDS011;36329;48.816;44.624;2024-01-27T08:52:30;4.9;;;2.7;;
49582;SDS011;36329;48.816;44.624;2024-01-27T08:55:32;5;;;2.8;;
49582;SDS011;36329;48.816;44.624;2024-01-27T08:58:35;4.3;;;2.5;;
49582;SDS011;36329;48.816;44.624;2024-01-27T09:01:37;5.4;;;2.8;;
49582;SDS011;36329;48.816;44.624;2024-01-27T09:04:40;5.1;;;3;;
49582;SDS011;36329;48.816;44.624;2024-01-27T09:07:42;5.4;;;2.6;;
49582;SDS011;36329;48.816;44.624;2024-01-27T09:10:44;3.8;;;2.3;;
49582;SDS011;36329;48.816;44.624;2024-01-27T09:13:46;4.1;;;2.3;;
49582;SDS011;36329;48.816;44.624;2024-01-27T09:16:48;4.2;;;2.2;;
49582;SDS011;36329;48.816;44.624;2024-01-27T09:19:51;3.6;;;2.2;;
49582;SDS011;36329;48.816;44.624;2024-01-27T09:22:53;4.3;;;2.5;;
49582;SDS011;36329;48.816;44.624;2024-01-27T09:25:55;4.7;;;2.2;;
49582;SDS011;36329;48.816;44.624;2024-01-27T09:28:57;3.1;;;2.1;;
49582;SDS011;36329;48.816;44.624;2024-01-27T09:32:00;4.4;;;2.2;;
49582;SDS011;36329;48.816;44.624;2024-01-27T09:35:02;3.6;;;2.1;;
49582;SDS011;36329;48.816;44.624;2024-01-27T09:38:06;4.2;;;2.3;;
49582;SDS011;36329;48.816;44.624;2024-01-27T09:41:09;3.6;;;1.9;;
49582;SDS011;36329;48.816;44.624;2024-01-27T09:44:14;4.1;;;2.2;;
49582;SDS011;36329;48.816;44.624;2024-01-27T09:47:21;3.9;;;1.9;;
49582;SDS011;36329;48.816;44.624;2024-01-27T09:50:23;4.5;;;2.6;;
49582;SDS011;36329;48.816;44.624;2024-01-27T09:53:25;3.8;;;2.5;;
49582;SDS011;36329;48.816;44.624;2024-01-27T09:56:28;4.7;;;2.7;;
49582;SDS011;36329;48.816;44.624;2024-01-27T09:59:30;3.6;;;2.2;;
49582;SDS011;36329;48.816;44.624;2024-01-27T10:02:39;3.3;;;2.2;;
49582;SDS011;36329;48.816;44.624;2024-01-27T10:05:42;3.7;;;2.4;;
49582;SDS011;36329;48.816;44.624;2024-01-27T10:08:46;4.3;;;2.3;;
49582;SDS011;36329;48.816;44.624;2024-01-27T10:11:55;6;;;3;;
49582;SDS011;36329;48.816;44.624;2024-01-27T10:14:58;6.7;;;2.9;;
49582;SDS011;36329;48.816;44.624;2024-01-27T10:18:04;6;;;2.8;;
49582;SDS011;36329;48.816;44.624;2024-01-27T10:21:15;5.1;;;3;;
49582;SDS011;36329;48.816;44.624;2024-01-27T10:24:18;6.6;;;2.6;;
49582;SDS011;36329;48.816;44.624;2024-01-27T10:27:20;4.9;;;2.4;;
49582;SDS011;36329;48.816;44.624;2024-01-27T10:30:22;4.9;;;2.4;;
49582;SDS011;36329;48.816;44.624;2024-01-27T10:33:24;5.2;;;2.4;;
49582;SDS011;36329;48.816;44.624;2024-01-27T10:36:26;7;;;3.1;;
49582;SDS011;36329;48.816;44.624;2024-01-27T10:39:40;3.5;;;2.4;;
49582;SDS011;36329;48.816;44.624;2024-01-27T10:42:43;3.1;;;2.1;;
49582;SDS011;36329;48.816;44.624;2024-01-27T10:45:46;4.2;;;2;;
49582;SDS011;36329;48.816;44.624;2024-01-27T10:48:50;3.4;;;2;;
49582;SDS011;36329;48.816;44.624;2024-01-27T10:51:54;3.1;;;2.3;;
49582;SDS011;36329;48.816;44.624;2024-01-27T10:54:58;3.2;;;2;;
49582;SDS011;36329;48.816;44.624;2024-01-27T10:58:02;3.5;;;2.3;;
49582;SDS011;36329;48.816;44.624;2024-01-27T11:01:04;3.9;;;2;;
49582;SDS011;36329;48.816;44.624;2024-01-27T11:04:07;3.4;;;1.9;;
49582;SDS011;36329;48.816;44.624;2024-01-27T11:07:13;4;;;2.3;;
49582;SDS011;36329;48.816;44.624;2024-01-27T11:10:15;2.8;;;1.9;;
49582;SDS011;36329;48.816;44.624;2024-01-27T11:13:20;3;;;2.1;;
49582;SDS011;36329;48.816;44.624;2024-01-27T11:16:22;4;;;2.1;;
49582;SDS011;36329;48.816;44.624;2024-01-27T11:19:26;4;;;2;;
49582;SDS011;36329;48.816;44.624;2024-01-27T11:22:29;3.1;;;2;;
49582;SDS011;36329;48.816;44.624;2024-01-27T11:25:31;4.9;;;2;;
49582;SDS011;36329;48.816;44.624;2024-01-27T11:28:34;3.5;;;2;;
49582;SDS011;36329;48.816;44.624;2024-01-27T11:31:39;3.3;;;2.1;;
49582;SDS011;36329;48.816;44.624;2024-01-27T11:34:42;2.7;;;1.8;;
49582;SDS011;36329;48.816;44.624;2024-01-27T11:37:45;3.2;;;1.9;;
49582;SDS011;36329;48.816;44.624;2024-01-27T11:40:48;3.5;;;2.4;;
49582;SDS011;36329;48.816;44.624;2024-01-27T11:43:52;4;;;2.2;;
49582;SDS011;36329;48.816;44.624;2024-01-27T11:46:54;4;;;2.3;;
49582;SDS011;36329;48.816;44.624;2024-01-27T11:49:57;4.6;;;2.8;;
49582;SDS011;36329;48.816;44.624;2024-01-27T11:52:59;6.6;;;3.5;;
49582;SDS011;36329;48.816;44.624;2024-01-27T11:56:02;6.2;;;3.3;;
49582;SDS011;36329;48.816;44.624;2024-01-27T11:59:05;6.9;;;2.8;;
49582;SDS011;36329;48.816;44.624;2024-01-27T12:02:07;5;;;2.5;;
49582;SDS011;36329;48.816;44.624;2024-01-27T12:05:10;3.9;;;2.3;;
49582;SDS011;36329;48.816;44.624;2024-01-27T12:08:14;4.4;;;2.4;;
49582;SDS011;36329;48.816;44.624;2024-01-27T12:11:18;5.1;;;2.7;;
49582;SDS011;36329;48.816;44.624;2024-01-27T12:14:20;3.5;;;2.4;;
49582;SDS011;36329;48.816;44.624;2024-01-27T12:17:22;4.1;;;2.5;;
49582;SDS011;36329;48.816;44.624;2024-01-27T12:20:25;3.9;;;2.4;;
49582;SDS011;36329;48.816;44.624;2024-01-27T12:23:28;5.1;;;2.7;;
49582;SDS011;36329;48.816;44.624;2024-01-27T12:26:30;4.9;;;3;;
49582;SDS011;36329;48.816;44.624;2024-01-27T12:29:34;5.1;;;2.9;;
49582;SDS011;36329;48.816;44.624;2024-01-27T12:32:36;6.2;;;2.5;;
49582;SDS011;36329;48.816;44.624;2024-01-27T12:35:38;5.4;;;2.5;;
49582;SDS011;36329;48.816;44.624;2024-01-27T12:38:40;3.2;;;2.5;;
49582;SDS011;36329;48.816;44.624;2024-01-27T12:41:43;3.5;;;2.3;;
49582;SDS011;36329;48.816;44.624;2024-01-27T12:44:51;4.2;;;2.2;;
49582;SDS011;36329;48.816;44.624;2024-01-27T12:47:54;3.9;;;2.5;;
49582;SDS011;36329;48.816;44.624;2024-01-27T12:50:57;4.7;;;2.8;;
49582;SDS011;36329;48.816;44.624;2024-01-27T12:53:59;5;;;2.9;;
49582;SDS011;36329;48.816;44.624;2024-01-27T12:57:01;6.9;;;4.1;;
49582;SDS011;36329;48.816;44.624;2024-01-27T13:00:04;5.7;;;3.9;;
49582;SDS011;36329;48.816;44.624;2024-01-27T13:03:07;5.9;;;3.6;;
49582;SDS011;36329;48.816;44.624;2024-01-27T13:06:09;7.5;;;5.2;;
49582;SDS011;36329;48.816;44.624;2024-01-27T13:09:11;12.2;;;6.3;;
49582;SDS011;36329;48.816;44.624;2024-01-27T13:12:14;9.4;;;5.4;;
49582;SDS011;36329;48.816;44.624;2024-01-27T13:15:16;6.8;;;4.6;;
49582;SDS011;36329;48.816;44.624;2024-01-27T13:18:18;6.3;;;3.8;;
49582;SDS011;36329;48.816;44.624;2024-01-27T13:21:21;6.2;;;3.5;;
49582;SDS011;36329;48.816;44.624;2024-01-27T13:24:23;5.6;;;3.4;;
49582;SDS011;36329;48.816;44.624;2024-01-27T13:27:25;5.7;;;3.8;;
49582;SDS011;36329;48.816;44.624;2024-01-27T13:30:27;7.1;;;4.3;;
49582;SDS011;36329;48.816;44.624;2024-01-27T13:33:29;6.3;;;4.2;;
49582;SDS011;36329;48.816;44.624;2024-01-27T13:36:32;5.9;;;4;;
49582;SDS011;36329;48.816;44.624;2024-01-27T13:39:34;5.8;;;3.7;;
49582;SDS011;36329;48.816;44.624;2024-01-27T13:42:36;4;;;2.9;;
49582;SDS011;36329;48.816;44.624;2024-01-27T13:45:38;5.9;;;3.5;;
49582;SDS011;36329;48.816;44.624;2024-01-27T13:48:42;5.3;;;3.2;;
49582;SDS011;36329;48.816;44.624;2024-01-27T13:51:44;5.8;;;4;;
49582;SDS011;36329;48.816;44.624;2024-01-27T13:54:47;7.7;;;3.7;;
49582;SDS011;36329;48.816;44.624;2024-01-27T13:57:49;6;;;3.8;;
49582;SDS011;36329;48.816;44.624;2024-01-27T14:00:51;6.3;;;4.1;;
49582;SDS011;36329;48.816;44.624;2024-01-27T14:03:53;6;;;3.9;;
49582;SDS011;36329;48.816;44.624;2024-01-27T14:06:56;5.9;;;3.8;;
49582;SDS011;36329;48.816;44.624;2024-01-27T14:09:58;8;;;4.1;;
49582;SDS011;36329;48.816;44.624;2024-01-27T14:13:00;10.7;;;5.8;;
49582;SDS011;36329;48.816;44.624;2024-01-27T14:16:03;13.4;;;7.2;;
49582;SDS011;36329;48.816;44.624;2024-01-27T14:19:05;14.2;;;6.3;;
49582;SDS011;36329;48.816;44.624;2024-01-27T14:22:07;12.9;;;6.3;;
49582;SDS011;36329;48.816;44.624;2024-01-27T14:25:09;14.9;;;6;;
49582;SDS011;36329;48.816;44.624;2024-01-27T14:28:12;15.6;;;6;;
49582;SDS011;36329;48.816;44.624;2024-01-27T14:31:14;13.1;;;5.5;;
49582;SDS011;36329;48.816;44.624;2024-01-27T14:34:16;12.1;;;5.8;;
49582;SDS011;36329;48.816;44.624;2024-01-27T14:37:19;10.8;;;5.1;;
49582;SDS011;36329;48.816;44.624;2024-01-27T14:40:21;12.6;;;5.6;;
49582;SDS011;36329;48.816;44.624;2024-01-27T14:43:23;12.2;;;5.3;;
49582;SDS011;36329;48.816;44.624;2024-01-27T14:46:27;12.3;;;5.3;;
49582;SDS011;36329;48.816;44.624;2024-01-27T14:49:31;13.6;;;5.2;;
49582;SDS011;36329;48.816;44.624;2024-01-27T14:52:40;13.8;;;5.2;;
49582;SDS011;36329;48.816;44.624;2024-01-27T14:55:43;14.8;;;6.3;;
49582;SDS011;36329;48.816;44.624;2024-01-27T14:58:45;13.3;;;6;;
49582;SDS011;36329;48.816;44.624;2024-01-27T15:01:47;15;;;6.2;;
49582;SDS011;36329;48.816;44.624;2024-01-27T15:04:49;18.1;;;7.5;;
49582;SDS011;36329;48.816;44.624;2024-01-27T15:07:51;10.5;;;5.1;;
49582;SDS011;36329;48.816;44.624;2024-01-27T15:10:54;15.1;;;6.4;;
49582;SDS011;36329;48.816;44.624;2024-01-27T15:13:56;11.1;;;5.4;;
49582;SDS011;36329;48.816;44.624;2024-01-27T15:16:58;8.8;;;4.7;;
49582;SDS011;36329;48.816;44.624;2024-01-27T15:20:01;8.1;;;4.2;;
49582;SDS011;36329;48.816;44.624;2024-01-27T15:23:05;8.6;;;3.9;;
49582;SDS011;36329;48.816;44.624;2024-01-27T15:26:07;6.9;;;3.3;;
49582;SDS011;36329;48.816;44.624;2024-01-27T15:29:10;5.4;;;2.9;;
49582;SDS011;36329;48.816;44.624;2024-01-27T15:32:13;4.4;;;2.4;;
49582;SDS011;36329;48.816;44.624;2024-01-27T15:35:17;4.6;;;2.4;;
49582;SDS011;36329;48.816;44.624;2024-01-27T15:38:19;4.1;;;2.2;;
49582;SDS011;36329;48.816;44.624;2024-01-27T15:41:21;5.7;;;2.7;;
49582;SDS011;36329;48.816;44.624;2024-01-27T15:44:24;6.3;;;2.6;;
49582;SDS011;36329;48.816;44.624;2024-01-27T15:47:26;3.9;;;2.3;;
49582;SDS011;36329;48.816;44.624;2024-01-27T15:50:28;5;;;2.7;;
49582;SDS011;36329;48.816;44.624;2024-01-27T15:53:31;4.1;;;2.3;;
49582;SDS011;36329;48.816;44.624;2024-01-27T15:56:35;6.5;;;2.4;;
49582;SDS011;36329;48.816;44.624;2024-01-27T15:59:37;3.3;;;1.9;;
49582;SDS011;36329;48.816;44.624;2024-01-27T16:02:39;4.1;;;2.1;;
49582;SDS011;36329;48.816;44.624;2024-01-27T16:05:41;3.7;;;2;;
49582;SDS011;36329;48.816;44.624;2024-01-27T16:08:43;3.2;;;1.8;;
49582;SDS011;36329;48.816;44.624;2024-01-27T16:11:46;2.5;;;1.8;;
49582;SDS011;36329;48.816;44.624;2024-01-27T16:14:48;3.8;;;2.2;;
49582;SDS011;36329;48.816;44.624;2024-01-27T16:17:50;3;;;1.9;;
49582;SDS011;36329;48.816;44.624;2024-01-27T16:20:52;4.9;;;2.6;;
49582;SDS011;36329;48.816;44.624;2024-01-27T16:23:54;3.8;;;2.3;;
49582;SDS011;36329;48.816;44.624;2024-01-27T16:26:58;4.3;;;2.6;;
49582;SDS011;36329;48.816;44.624;2024-01-27T16:30:00;7.5;;;3.8;;
49582;SDS011;36329;48.816;44.624;2024-01-27T16:33:07;6.3;;;3.6;;
49582;SDS011;36329;48.816;44.624;2024-01-27T16:36:09;6.4;;;3.8;;
49582;SDS011;36329;48.816;44.624;2024-01-27T16:39:11;9.2;;;5.5;;
49582;SDS011;36329;48.816;44.624;2024-01-27T16:42:13;6.5;;;3.8;;
49582;SDS011;36329;48.816;44.624;2024-01-27T16:45:15;5.5;;;3.4;;
49582;SDS011;36329;48.816;44.624;2024-01-27T16:48:17;5.4;;;3.2;;
49582;SDS011;36329;48.816;44.624;2024-01-27T16:51:20;5;;;3;;
49582;SDS011;36329;48.816;44.624;2024-01-27T16:54:22;6.4;;;3.3;;
49582;SDS011;36329;48.816;44.624;2024-01-27T16:57:24;6.5;;;4;;
49582;SDS011;36329;48.816;44.624;2024-01-27T17:00:27;7.8;;;4.5;;
49582;SDS011;36329;48.816;44.624;2024-01-27T17:03:29;6;;;3.3;;
49582;SDS011;36329;48.816;44.624;2024-01-27T17:06:31;5.2;;;3.1;;
49582;SDS011;36329;48.816;44.624;2024-01-27T17:09:33;8.4;;;4;;
49582;SDS011;36329;48.816;44.624;2024-01-27T17:12:36;7.1;;;3.4;;
49582;SDS011;36329;48.816;44.624;2024-01-27T17:15:38;5.1;;;3.2;;
49582;SDS011;36329;48.816;44.624;2024-01-27T17:18:40;5.9;;;3.1;;
49582;SDS011;36329;48.816;44.624;2024-01-27T17:21:42;8.6;;;3.8;;
49582;SDS011;36329;48.816;44.624;2024-01-27T17:24:45;9.1;;;3.7;;
49582;SDS011;36329;48.816;44.624;2024-01-27T17:27:47;7.1;;;2.9;;
49582;SDS011;36329;48.816;44.624;2024-01-27T17:30:50;8.3;;;3.4;;
49582;SDS011;36329;48.816;44.624;2024-01-27T17:33:52;10.1;;;5.4;;
49582;SDS011;36329;48.816;44.624;2024-01-27T17:36:55;13.3;;;7.1;;
49582;SDS011;36329;48.816;44.624;2024-01-27T17:39:57;14.3;;;5;;
49582;SDS011;36329;48.816;44.624;2024-01-27T17:42:59;10.2;;;3.3;;
49582;SDS011;36329;48.816;44.624;2024-01-27T17:46:01;7.6;;;2.7;;
49582;SDS011;36329;48.816;44.624;2024-01-27T17:49:05;7;;;2.7;;
49582;SDS011;36329;48.816;44.624;2024-01-27T17:52:08;5.4;;;2.5;;
49582;SDS011;36329;48.816;44.624;2024-01-27T17:55:10;6.6;;;2.6;;
49582;SDS011;36329;48.816;44.624;2024-01-27T17:58:12;10.7;;;3.4;;
49582;SDS011;36329;48.816;44.624;2024-01-27T18:01:14;8.6;;;3.4;;
49582;SDS011;36329;48.816;44.624;2024-01-27T18:04:17;9;;;3.5;;
49582;SDS011;36329;48.816;44.624;2024-01-27T18:07:19;6;;;3;;
49582;SDS011;36329;48.816;44.624;2024-01-27T18:10:21;8.1;;;3.6;;
49582;SDS011;36329;48.816;44.624;2024-01-27T18:13:28;5.3;;;2.7;;
49582;SDS011;36329;48.816;44.624;2024-01-27T18:16:31;6.6;;;3;;
49582;SDS011;36329;48.816;44.624;2024-01-27T18:19:33;5.3;;;2.9;;
49582;SDS011;36329;48.816;44.624;2024-01-27T18:22:35;8.2;;;3.3;;
49582;SDS011;36329;48.816;44.624;2024-01-27T18:25:38;8.1;;;3.4;;
49582;SDS011;36329;48.816;44.624;2024-01-27T18:28:41;7.4;;;3.2;;
49582;SDS011;36329;48.816;44.624;2024-01-27T18:31:43;6.3;;;3;;
49582;SDS011;36329;48.816;44.624;2024-01-27T18:34:45;8.6;;;2.7;;
49582;SDS011;36329;48.816;44.624;2024-01-27T18:37:47;6.7;;;3;;
49582;SDS011;36329;48.816;44.624;2024-01-27T18:40:50;7;;;2.8;;
49582;SDS011;36329;48.816;44.624;2024-01-27T18:43:52;14;;;3.6;;